Impacts METAR Board INFO
IDs:

KLAS - Las Vegas/McCarran I, NV, US

Updated at: 0409 UTC 17 Dec 2017
Potential Impact None Slight Moderate High
Time16/16Z 16/17Z 16/18Z 16/19Z 16/20Z 16/21Z 16/22Z 16/23Z 17/00Z 17/01Z 17/02Z 17/03Z 17/04Z
VIS10 10 10 10 10 10 10 10 10 10 10 10 10
CIG200 150 150 150 200 -- -- 120 120 120 120 140 140
CoverBKNOVCBKNBKNBKNSCTSCTBKNBKNBKNBKNBKNBKN
FltCatVFRVFRVFRVFRVFRVFRVFRVFRVFRVFRVFRVFRVFR
WX--------------------------
WDir0170000001100036036030
WSpd0 3 0 0 0 0 0 3 0 0 9 11 16
WGst-- -- -- -- -- -- -- -- -- -- -- -- 26
Raw hourly METARs
KLAS 161556Z 00000KT 10SM SCT150 BKN200 08/M08 A2979 RMK AO2 SLP084 T00831083
KLAS 161656Z 17003KT 10SM BKN150 OVC200 09/M08 A2979 RMK AO2 SLP084 T00941078
KLAS 161756Z 00000KT 10SM FEW120 BKN150 11/M08 A2979 RMK AO2 SLP085 T01061078 10106 20072 51003
KLAS 161856Z 00000KT 10SM FEW120 BKN150 BKN200 13/M09 A2978 RMK AO2 SLP079 T01281089
KLAS 161956Z 00000KT 10SM FEW120 SCT150 BKN200 14/M09 A2975 RMK AO2 SLP069 T01391089
KLAS 162056Z 00000KT 10SM FEW090 SCT120 SCT150 15/M09 A2973 RMK AO2 SLP061 T01501094 58019
KLAS 162156Z 00000KT 10SM FEW090 SCT120 SCT150 15/M10 A2973 RMK AO2 SLP060 T01501100
KLAS 162256Z 11003KT 10SM FEW090 BKN120 BKN200 16/M09 A2973 RMK AO2 SLP060 T01561094
KLAS 162356Z 00000KT 10SM SCT090 BKN120 15/M09 A2974 RMK AO2 SLP065 T01501094 10161 20106 53003
KLAS 170056Z 00000KT 10SM SCT090 BKN120 15/M09 A2975 RMK AO2 SLP070 T01501089
KLAS 170156Z 36009KT 10SM SCT090 BKN120 15/M05 A2978 RMK AO2 SLP078 T01501050
KLAS 170256Z 36011KT 10SM BKN140 14/M03 A2980 RMK AO2 SLP086 T01441033 53019
KLAS 170356Z 03016G26KT 10SM BKN140 14/M02 A2983 RMK AO2 PK WND 02026/0351 SLP097 T01391022